createdAt,value
2023-05-08T00:00:26.535Z,14.00
2023-05-08T00:02:56.716Z,14.00
2023-05-08T00:05:25.492Z,14.00
2023-05-08T00:07:58.716Z,14.00
2023-05-08T00:10:29.166Z,13.90
2023-05-08T00:12:57.715Z,13.90
2023-05-08T00:15:26.100Z,13.90
2023-05-08T00:17:56.006Z,13.80
2023-05-08T00:20:25.270Z,13.80
2023-05-08T00:22:53.559Z,13.90
2023-05-08T00:25:21.992Z,13.80
2023-05-08T00:27:50.900Z,13.80
2023-05-08T00:30:20.639Z,13.90
2023-05-08T00:32:49.641Z,13.80
2023-05-08T00:35:19.352Z,13.80
2023-05-08T00:37:48.007Z,13.70
2023-05-08T00:40:16.513Z,13.80
2023-05-08T00:42:44.708Z,13.70
2023-05-08T00:45:13.011Z,13.70
2023-05-08T00:47:42.419Z,13.70
2023-05-08T00:50:12.614Z,13.70
2023-05-08T00:52:43.199Z,13.70
2023-05-08T00:55:12.108Z,13.70
2023-05-08T00:57:40.829Z,13.70
2023-05-08T01:00:10.636Z,13.70
2023-05-08T01:02:40.814Z,13.60
2023-05-08T01:05:10.412Z,13.60
2023-05-08T01:07:39.708Z,13.60
2023-05-08T01:10:11.766Z,13.60
2023-05-08T01:12:50.391Z,13.50
2023-05-08T01:15:25.206Z,13.50
2023-05-08T01:18:03.663Z,13.50
2023-05-08T01:20:41.118Z,13.60
2023-05-08T01:24:01.491Z,13.50
2023-05-08T01:26:52.781Z,13.40
2023-05-08T01:29:52.486Z,13.40
2023-05-08T01:32:24.812Z,13.40
2023-05-08T01:35:08.911Z,13.40
2023-05-08T01:37:43.496Z,13.30
2023-05-08T01:40:19.054Z,13.30
2023-05-08T01:42:54.737Z,13.30
2023-05-08T01:45:27.110Z,13.30
2023-05-08T01:48:05.072Z,13.30
2023-05-08T01:50:37.531Z,13.20
2023-05-08T01:53:10.566Z,13.40
2023-05-08T01:55:40.905Z,13.30
2023-05-08T01:58:12.401Z,13.20
2023-05-08T02:00:42.620Z,13.30
2023-05-08T02:03:15.848Z,13.10
2023-05-08T02:05:45.091Z,13.20
2023-05-08T02:08:15.819Z,13.10
2023-05-08T02:10:46.093Z,13.10
2023-05-08T02:13:19.119Z,13.10
2023-05-08T02:15:49.458Z,13.20
2023-05-08T02:18:22.386Z,13.10
2023-05-08T02:20:52.990Z,13.10
2023-05-08T02:23:23.222Z,13.10
2023-05-08T02:25:52.234Z,13.10
2023-05-08T02:28:21.507Z,13.00
2023-05-08T02:30:51.848Z,13.00
2023-05-08T02:33:22.253Z,13.10
2023-05-08T02:35:51.922Z,13.00
2023-05-08T02:38:23.053Z,13.00
2023-05-08T02:40:57.665Z,12.90
2023-05-08T02:43:25.930Z,12.90
2023-05-08T02:46:06.147Z,12.90
2023-05-08T02:48:41.935Z,12.90
2023-05-08T02:51:20.148Z,12.90
2023-05-08T02:53:53.210Z,12.90
2023-05-08T02:56:32.044Z,12.80
2023-05-08T02:59:11.020Z,12.70
2023-05-08T03:01:46.972Z,12.70
2023-05-08T03:04:25.562Z,12.70
2023-05-08T03:06:57.869Z,12.60
2023-05-08T03:09:28.780Z,12.60
2023-05-08T03:12:04.738Z,12.60
2023-05-08T03:14:40.276Z,12.60
2023-05-08T03:17:14.017Z,12.60
2023-05-08T03:19:48.372Z,12.50
2023-05-08T03:22:20.122Z,12.60
2023-05-08T03:24:51.109Z,12.50
2023-05-08T03:27:20.924Z,12.40
2023-05-08T03:29:50.703Z,12.40
2023-05-08T03:32:22.139Z,12.40
2023-05-08T03:34:52.474Z,12.40
2023-05-08T03:37:21.050Z,12.30
2023-05-08T03:40:10.426Z,12.30
2023-05-08T03:42:39.761Z,12.30
2023-05-08T03:45:10.498Z,12.20
2023-05-08T03:47:42.455Z,12.30
2023-05-08T03:50:12.893Z,12.20
2023-05-08T03:52:43.884Z,12.20
2023-05-08T03:55:12.301Z,12.20
2023-05-08T03:57:49.841Z,12.30
2023-05-08T04:00:49.217Z,12.30
2023-05-08T04:03:26.069Z,12.30
2023-05-08T04:06:03.802Z,12.20
2023-05-08T04:08:42.177Z,12.30
2023-05-08T04:11:19.883Z,12.20
2023-05-08T04:13:51.597Z,12.30
2023-05-08T04:16:25.425Z,12.30
2023-05-08T04:19:00.725Z,12.40
2023-05-08T04:21:36.225Z,12.40
2023-05-08T04:24:12.939Z,12.40
2023-05-08T04:26:42.732Z,12.40
2023-05-08T04:29:11.737Z,12.50
2023-05-08T04:31:41.892Z,12.50
2023-05-08T04:34:11.457Z,12.60
2023-05-08T04:36:41.878Z,12.60
2023-05-08T04:39:11.262Z,12.60
2023-05-08T04:41:39.766Z,12.50
2023-05-08T04:44:08.594Z,12.60
2023-05-08T04:46:37.048Z,12.70
2023-05-08T04:49:07.115Z,12.70
2023-05-08T04:51:38.084Z,12.80
2023-05-08T04:54:07.844Z,12.80
2023-05-08T04:56:44.454Z,12.80
2023-05-08T04:59:14.784Z,12.90
2023-05-08T05:01:44.202Z,12.90
2023-05-08T05:04:32.266Z,13.00
2023-05-08T05:07:01.427Z,13.00
2023-05-08T05:09:37.060Z,13.00
2023-05-08T05:12:09.173Z,13.10
2023-05-08T05:14:40.398Z,13.20
2023-05-08T05:17:10.678Z,13.10
2023-05-08T05:19:40.050Z,13.20
2023-05-08T05:22:09.997Z,13.20
2023-05-08T05:24:41.618Z,13.30
2023-05-08T05:27:27.058Z,13.40
2023-05-08T05:29:55.285Z,13.40
2023-05-08T05:32:23.539Z,13.40
2023-05-08T05:34:52.765Z,13.50
2023-05-08T05:37:23.136Z,13.60
2023-05-08T05:39:54.454Z,13.60
2023-05-08T05:42:24.417Z,13.70
2023-05-08T05:44:53.368Z,13.80
2023-05-08T05:47:21.956Z,13.80
2023-05-08T05:49:50.397Z,13.90
2023-05-08T05:52:18.629Z,13.80
2023-05-08T05:54:48.178Z,13.90
2023-05-08T05:57:37.759Z,13.90
2023-05-08T06:00:09.040Z,14.10
2023-05-08T06:02:39.482Z,14.10
2023-05-08T06:05:09.686Z,14.20
2023-05-08T06:07:39.805Z,14.30
2023-05-08T06:10:18.943Z,14.40
2023-05-08T06:12:48.959Z,14.50
2023-05-08T06:15:18.619Z,14.60
2023-05-08T06:17:47.149Z,14.70
2023-05-08T06:20:15.820Z,14.90
2023-05-08T06:22:44.440Z,14.90
2023-05-08T06:25:12.882Z,15.00
2023-05-08T06:27:41.651Z,15.00
2023-05-08T06:30:13.350Z,15.20
2023-05-08T06:32:42.830Z,15.20
2023-05-08T06:35:12.265Z,15.30
2023-05-08T06:37:41.442Z,15.60
2023-05-08T06:40:13.082Z,15.70
2023-05-08T06:42:41.822Z,15.70
2023-05-08T06:45:12.328Z,15.80
2023-05-08T06:47:41.200Z,16.00
2023-05-08T06:50:10.682Z,16.00
2023-05-08T06:52:39.260Z,16.20
2023-05-08T06:55:08.010Z,16.20
2023-05-08T06:57:37.319Z,16.30
2023-05-08T07:00:06.236Z,16.50
2023-05-08T07:02:37.061Z,16.50
2023-05-08T07:05:06.601Z,16.70
2023-05-08T07:07:35.273Z,16.60
2023-05-08T07:10:04.603Z,16.80
2023-05-08T07:12:34.511Z,16.80
2023-05-08T07:15:10.711Z,17.00
2023-05-08T07:17:48.112Z,17.20
2023-05-08T07:20:16.473Z,17.20
2023-05-08T07:22:45.281Z,17.30
2023-05-08T07:25:13.924Z,17.40
2023-05-08T07:27:43.475Z,17.60
2023-05-08T07:30:12.460Z,17.80
2023-05-08T07:32:41.019Z,17.90
2023-05-08T07:35:13.010Z,18.10
2023-05-08T07:37:45.163Z,18.10
2023-05-08T07:40:14.572Z,18.30
2023-05-08T07:42:44.968Z,18.40
2023-05-08T07:45:14.500Z,18.50
2023-05-08T07:47:51.707Z,18.70
2023-05-08T07:50:23.151Z,18.90
2023-05-08T07:52:52.675Z,19.00
2023-05-08T07:55:21.483Z,19.00
2023-05-08T07:57:52.048Z,19.10
2023-05-08T08:00:21.766Z,19.00
2023-05-08T08:02:51.004Z,19.10
2023-05-08T08:05:19.654Z,19.20
2023-05-08T08:07:49.378Z,19.30
2023-05-08T08:10:18.040Z,19.40
2023-05-08T08:12:47.506Z,19.50
2023-05-08T08:15:16.148Z,19.40
2023-05-08T08:17:45.139Z,19.30
2023-05-08T08:20:14.340Z,19.30
2023-05-08T08:22:42.502Z,19.20
2023-05-08T08:25:13.482Z,19.10
2023-05-08T08:27:41.819Z,19.00
2023-05-08T08:30:17.435Z,19.00
2023-05-08T08:32:46.612Z,19.00
2023-05-08T08:35:17.151Z,19.10
2023-05-08T08:37:47.483Z,19.10
2023-05-08T08:40:19.584Z,19.30
2023-05-08T08:42:48.105Z,19.40
2023-05-08T08:45:18.987Z,19.50
2023-05-08T08:47:49.011Z,19.50
2023-05-08T08:50:20.461Z,19.60
2023-05-08T08:52:57.050Z,19.60
2023-05-08T08:55:30.690Z,19.60
2023-05-08T08:58:14.045Z,19.60
2023-05-08T09:00:44.541Z,19.60
2023-05-08T09:03:13.153Z,19.60
2023-05-08T09:05:42.089Z,19.60
2023-05-08T09:08:13.344Z,19.70
2023-05-08T09:10:47.077Z,19.70
2023-05-08T09:13:17.355Z,19.70
2023-05-08T09:15:49.288Z,19.80
2023-05-08T09:18:17.712Z,19.90
2023-05-08T09:20:46.806Z,19.90
2023-05-08T09:23:17.375Z,19.90
2023-05-08T09:25:48.547Z,20.10
2023-05-08T09:28:18.352Z,20.20
2023-05-08T09:30:51.234Z,20.20
2023-05-08T09:33:19.970Z,20.30
2023-05-08T09:35:49.559Z,20.30
2023-05-08T09:38:35.078Z,20.30
2023-05-08T09:41:12.583Z,20.30
2023-05-08T09:43:40.768Z,20.30
2023-05-08T09:46:23.672Z,20.30
2023-05-08T09:48:53.057Z,20.30
2023-05-08T09:51:22.710Z,20.40
2023-05-08T09:53:53.188Z,20.70
2023-05-08T09:56:34.017Z,20.90
2023-05-08T09:59:06.407Z,21.10
2023-05-08T10:01:51.547Z,21.30
2023-05-08T10:04:31.961Z,21.30
2023-05-08T10:07:01.207Z,21.40
2023-05-08T10:09:42.507Z,21.40
2023-05-08T10:12:16.881Z,21.30
2023-05-08T10:14:46.534Z,21.20
2023-05-08T10:17:25.978Z,21.20
2023-05-08T10:20:01.713Z,21.20
2023-05-08T10:22:31.390Z,21.20
2023-05-08T10:25:03.472Z,21.10
2023-05-08T10:27:46.761Z,21.20
2023-05-08T10:30:39.425Z,21.30
2023-05-08T10:33:12.089Z,21.50
2023-05-08T10:35:58.316Z,21.60
2023-05-08T10:38:27.740Z,21.50
2023-05-08T10:41:16.348Z,21.70
2023-05-08T10:43:46.174Z,21.70
2023-05-08T10:46:20.978Z,21.80
2023-05-08T10:48:57.407Z,21.80
2023-05-08T10:51:46.450Z,21.90
2023-05-08T10:54:21.703Z,22.00
2023-05-08T10:56:51.558Z,22.20
2023-05-08T10:59:23.060Z,22.30
2023-05-08T11:02:08.260Z,22.50
2023-05-08T11:04:38.337Z,22.70
2023-05-08T11:07:10.224Z,22.80
2023-05-08T11:09:54.828Z,22.90
2023-05-08T11:12:29.840Z,22.90
2023-05-08T11:15:04.378Z,22.90
2023-05-08T11:17:34.630Z,22.90
2023-05-08T11:20:07.708Z,22.90
2023-05-08T11:22:39.068Z,23.10
2023-05-08T11:25:09.849Z,23.30
2023-05-08T11:28:14.221Z,23.30
2023-05-08T11:30:47.748Z,23.40
2023-05-08T11:33:18.108Z,23.40
2023-05-08T11:35:58.672Z,23.50
2023-05-08T11:38:32.782Z,23.60
2023-05-08T11:41:25.751Z,23.50
2023-05-08T11:44:18.525Z,23.50
2023-05-08T11:46:53.983Z,23.60
2023-05-08T11:49:28.202Z,23.60
2023-05-08T11:52:19.889Z,23.60
2023-05-08T11:54:49.667Z,23.60
2023-05-08T11:57:19.627Z,23.60
2023-05-08T11:59:51.922Z,23.60
2023-05-08T12:02:35.091Z,23.50
2023-05-08T12:05:04.527Z,23.50
2023-05-08T12:07:33.351Z,23.60
2023-05-08T12:10:02.700Z,23.60
2023-05-08T12:12:41.234Z,23.50
2023-05-08T12:15:11.419Z,23.70
2023-05-08T12:17:41.290Z,23.70
2023-05-08T12:20:16.335Z,23.70
2023-05-08T12:22:52.299Z,23.70
2023-05-08T12:25:21.181Z,23.80
2023-05-08T12:27:49.694Z,23.80
2023-05-08T12:30:19.242Z,23.80
2023-05-08T12:32:50.626Z,23.80
2023-05-08T12:35:34.422Z,23.90
2023-05-08T12:38:03.691Z,24.00
2023-05-08T12:40:36.226Z,24.00
2023-05-08T12:43:06.077Z,24.00
2023-05-08T12:45:38.589Z,23.90
2023-05-08T12:48:10.188Z,24.00
2023-05-08T12:50:40.482Z,23.90
2023-05-08T12:53:10.718Z,23.80
2023-05-08T12:55:40.514Z,23.80
2023-05-08T12:58:15.184Z,23.80
2023-05-08T13:00:46.160Z,23.90
2023-05-08T13:03:25.979Z,23.90
2023-05-08T13:05:55.669Z,24.00
2023-05-08T13:08:32.624Z,23.90
2023-05-08T13:11:02.983Z,23.90
2023-05-08T13:13:32.819Z,23.80
2023-05-08T13:16:04.647Z,23.90
2023-05-08T13:18:36.877Z,23.80
2023-05-08T13:21:05.985Z,23.90
2023-05-08T13:23:37.102Z,23.80
2023-05-08T13:26:05.680Z,23.80
2023-05-08T13:28:34.375Z,23.80
2023-05-08T13:31:02.999Z,23.80
2023-05-08T13:33:52.252Z,23.80
2023-05-08T13:36:21.781Z,23.90
2023-05-08T13:38:51.563Z,23.80
2023-05-08T13:41:22.123Z,23.90
2023-05-08T13:43:51.215Z,23.90
2023-05-08T13:46:19.912Z,24.10
2023-05-08T13:49:09.302Z,24.20
2023-05-08T13:51:37.929Z,24.40
2023-05-08T13:54:09.077Z,24.40
2023-05-08T13:56:38.931Z,24.40
2023-05-08T13:59:09.200Z,24.50
2023-05-08T14:01:38.700Z,24.40
2023-05-08T14:04:09.513Z,24.40
2023-05-08T14:06:38.815Z,24.40
2023-05-08T14:09:07.395Z,24.30
2023-05-08T14:11:36.285Z,24.20
2023-05-08T14:14:05.112Z,24.10
2023-05-08T14:16:34.023Z,24.00
2023-05-08T14:19:02.885Z,23.90
2023-05-08T14:21:32.790Z,23.80
2023-05-08T14:24:01.312Z,24.00
2023-05-08T14:26:29.878Z,23.90
2023-05-08T14:29:18.783Z,23.90
2023-05-08T14:31:48.068Z,23.80
2023-05-08T14:34:16.168Z,23.80
2023-05-08T14:36:46.389Z,23.70
2023-05-08T14:39:15.658Z,23.70
2023-05-08T14:41:51.206Z,23.60
2023-05-08T14:44:33.084Z,23.50
2023-05-08T14:47:02.009Z,23.40
2023-05-08T14:49:37.553Z,23.40
2023-05-08T14:52:08.375Z,23.30
2023-05-08T14:54:38.087Z,23.30
2023-05-08T14:57:07.616Z,23.40
2023-05-08T14:59:36.088Z,23.50
2023-05-08T15:02:05.067Z,23.50
2023-05-08T15:04:33.516Z,23.50
2023-05-08T15:07:02.417Z,23.40
2023-05-08T15:09:32.527Z,23.40
2023-05-08T15:12:03.295Z,23.40
2023-05-08T15:14:32.529Z,23.40
2023-05-08T15:17:01.224Z,23.30
2023-05-08T15:19:29.925Z,23.30
2023-05-08T15:21:58.689Z,23.20
2023-05-08T15:24:29.928Z,23.30
2023-05-08T15:27:00.252Z,23.20
2023-05-08T15:29:28.896Z,23.30
2023-05-08T15:31:57.829Z,23.20
2023-05-08T15:34:33.015Z,23.20
2023-05-08T15:37:01.823Z,23.20
2023-05-08T15:39:30.584Z,23.20
2023-05-08T15:42:01.305Z,23.30
2023-05-08T15:44:41.653Z,23.20
2023-05-08T15:47:19.504Z,23.20
2023-05-08T15:49:47.982Z,23.20
2023-05-08T15:52:18.784Z,23.10
2023-05-08T15:54:48.558Z,23.10
2023-05-08T15:57:19.403Z,23.00
2023-05-08T15:59:48.997Z,23.00
2023-05-08T16:02:17.527Z,22.90
2023-05-08T16:04:46.613Z,22.90
2023-05-08T16:07:18.840Z,22.80
2023-05-08T16:09:47.609Z,22.80
2023-05-08T16:12:19.757Z,22.80
2023-05-08T16:14:47.985Z,22.80
2023-05-08T16:17:17.067Z,22.80
2023-05-08T16:19:45.420Z,22.70
2023-05-08T16:22:15.594Z,22.80
2023-05-08T16:24:44.168Z,22.80
2023-05-08T16:27:13.402Z,22.80
2023-05-08T16:30:02.586Z,22.80
2023-05-08T16:32:33.628Z,22.90
2023-05-08T16:35:11.442Z,23.00
2023-05-08T16:37:41.035Z,22.90
2023-05-08T16:40:11.118Z,22.90
2023-05-08T16:42:41.354Z,22.90
2023-05-08T16:45:13.611Z,22.90
2023-05-08T16:47:42.588Z,22.90
2023-05-08T16:50:12.573Z,22.70
2023-05-08T16:52:41.871Z,22.70
2023-05-08T16:55:12.462Z,22.70
2023-05-08T16:58:00.671Z,22.60
2023-05-08T17:00:30.896Z,22.60
2023-05-08T17:03:00.469Z,22.50
2023-05-08T17:05:29.185Z,22.30
2023-05-08T17:07:57.926Z,22.40
2023-05-08T17:10:26.565Z,22.30
2023-05-08T17:12:55.154Z,22.20
2023-05-08T17:15:23.766Z,22.30
2023-05-08T17:18:02.044Z,22.30
2023-05-08T17:20:30.761Z,22.20
2023-05-08T17:23:00.084Z,22.10
2023-05-08T17:25:28.665Z,22.00
2023-05-08T17:27:57.771Z,21.90
2023-05-08T17:30:26.319Z,21.70
2023-05-08T17:32:55.577Z,21.60
2023-05-08T17:35:25.513Z,21.70
2023-05-08T17:37:54.628Z,21.60
2023-05-08T17:40:23.685Z,21.50
2023-05-08T17:42:52.153Z,21.40
2023-05-08T17:45:21.570Z,21.30
2023-05-08T17:47:50.195Z,21.30
2023-05-08T17:50:18.716Z,21.20
2023-05-08T17:52:48.467Z,21.10
2023-05-08T17:55:16.842Z,21.00
2023-05-08T17:57:45.339Z,20.90
2023-05-08T18:00:17.875Z,20.80
2023-05-08T18:02:47.294Z,20.70
2023-05-08T18:05:16.702Z,20.70
2023-05-08T18:07:45.484Z,20.50
2023-05-08T18:10:15.347Z,20.50
2023-05-08T18:12:45.016Z,20.40
2023-05-08T18:15:14.183Z,20.30
2023-05-08T18:17:46.145Z,20.30
2023-05-08T18:20:17.001Z,20.10
2023-05-08T18:22:50.182Z,20.10
2023-05-08T18:25:21.044Z,20.10
2023-05-08T18:27:51.775Z,20.00
2023-05-08T18:30:21.792Z,19.90
2023-05-08T18:32:53.208Z,19.90
2023-05-08T18:35:25.646Z,19.80
2023-05-08T18:37:54.317Z,19.70
2023-05-08T18:40:25.651Z,19.80
2023-05-08T18:42:54.846Z,19.70
2023-05-08T18:45:23.548Z,19.70
2023-05-08T18:47:57.884Z,19.60
2023-05-08T18:50:32.091Z,19.50
2023-05-08T18:53:01.146Z,19.50
2023-05-08T18:55:32.310Z,19.40
2023-05-08T18:58:06.153Z,19.30
2023-05-08T19:00:35.576Z,19.20
2023-05-08T19:03:03.979Z,19.20
2023-05-08T19:05:32.525Z,19.20
2023-05-08T19:08:01.565Z,19.00
2023-05-08T19:10:33.009Z,18.90
2023-05-08T19:13:02.652Z,19.00
2023-05-08T19:15:31.297Z,18.90
2023-05-08T19:17:59.761Z,18.90
2023-05-08T19:20:28.888Z,18.90
2023-05-08T19:23:01.871Z,18.80
2023-05-08T19:25:35.088Z,18.70
2023-05-08T19:28:04.073Z,18.70
2023-05-08T19:30:32.392Z,18.60
2023-05-08T19:33:01.540Z,18.60
2023-05-08T19:35:30.364Z,18.50
2023-05-08T19:38:00.449Z,18.50
2023-05-08T19:40:30.897Z,18.40
2023-05-08T19:43:02.143Z,18.40
2023-05-08T19:45:35.536Z,18.30
2023-05-08T19:48:10.652Z,18.30
2023-05-08T19:50:47.668Z,18.30
2023-05-08T19:53:16.421Z,18.20
2023-05-08T19:55:45.908Z,18.10
2023-05-08T19:58:35.214Z,18.00
2023-05-08T20:01:10.874Z,18.00
2023-05-08T20:03:40.132Z,18.00
2023-05-08T20:06:09.426Z,18.00
2023-05-08T20:08:38.176Z,17.90
2023-05-08T20:11:09.304Z,17.90
2023-05-08T20:13:54.950Z,17.90
2023-05-08T20:16:23.866Z,17.90
2023-05-08T20:18:53.840Z,17.80
2023-05-08T20:21:22.590Z,17.80
2023-05-08T20:23:51.683Z,17.70
2023-05-08T20:26:23.374Z,17.60
2023-05-08T20:28:53.669Z,17.50
2023-05-08T20:31:27.637Z,17.70
2023-05-08T20:33:56.171Z,17.50
2023-05-08T20:36:28.334Z,17.40
2023-05-08T20:38:58.389Z,17.40
2023-05-08T20:41:27.563Z,17.40
2023-05-08T20:43:57.502Z,17.40
2023-05-08T20:46:27.314Z,17.30
2023-05-08T20:48:56.147Z,17.30
2023-05-08T20:51:26.950Z,17.30
2023-05-08T20:53:55.893Z,17.20
2023-05-08T20:56:24.394Z,17.10
2023-05-08T20:58:53.158Z,17.20
2023-05-08T21:01:22.749Z,17.10
2023-05-08T21:03:52.091Z,17.00
2023-05-08T21:06:21.393Z,17.00
2023-05-08T21:08:51.221Z,17.00
2023-05-08T21:11:21.086Z,16.90
2023-05-08T21:13:50.651Z,16.80
2023-05-08T21:16:23.375Z,16.90
2023-05-08T21:18:55.496Z,16.80
2023-05-08T21:21:26.834Z,16.70
2023-05-08T21:24:14.924Z,16.70
2023-05-08T21:26:44.006Z,16.60
2023-05-08T21:29:12.282Z,16.70
2023-05-08T21:31:43.388Z,16.60
2023-05-08T21:34:13.460Z,16.50
2023-05-08T21:36:59.123Z,16.60
2023-05-08T21:39:30.530Z,16.50
2023-05-08T21:42:18.321Z,16.50
2023-05-08T21:44:46.570Z,16.40
2023-05-08T21:47:16.114Z,16.30
2023-05-08T21:49:45.255Z,16.30
2023-05-08T21:52:14.754Z,16.30
2023-05-08T21:54:42.938Z,16.30
2023-05-08T21:57:11.066Z,16.20
2023-05-08T21:59:39.543Z,16.20
2023-05-08T22:02:09.286Z,16.20
2023-05-08T22:04:38.866Z,16.20
2023-05-08T22:07:26.643Z,16.10
2023-05-08T22:09:56.481Z,16.00
2023-05-08T22:12:25.086Z,16.00
2023-05-08T22:14:53.498Z,16.00
2023-05-08T22:17:21.963Z,15.90
2023-05-08T22:19:51.461Z,16.00
2023-05-08T22:22:20.253Z,15.90
2023-05-08T22:24:48.931Z,15.90
2023-05-08T22:27:34.334Z,15.90
2023-05-08T22:30:02.860Z,15.80
2023-05-08T22:32:31.622Z,15.80
2023-05-08T22:35:01.159Z,15.70
2023-05-08T22:37:32.502Z,15.70
2023-05-08T22:40:03.979Z,15.70
2023-05-08T22:42:32.593Z,15.70
2023-05-08T22:45:01.186Z,15.60
2023-05-08T22:47:31.271Z,15.60
2023-05-08T22:50:08.558Z,15.50
2023-05-08T22:52:37.500Z,15.60
2023-05-08T22:55:07.900Z,15.40
2023-05-08T22:57:36.162Z,15.40
2023-05-08T23:00:05.586Z,15.30
2023-05-08T23:02:35.239Z,15.40
2023-05-08T23:05:05.225Z,15.40
2023-05-08T23:07:33.519Z,15.30
2023-05-08T23:10:02.073Z,15.30
2023-05-08T23:12:30.648Z,15.20
2023-05-08T23:14:58.991Z,15.10
2023-05-08T23:17:27.471Z,15.20
2023-05-08T23:19:56.076Z,15.10
2023-05-08T23:22:45.150Z,15.10
2023-05-08T23:25:14.734Z,15.00
2023-05-08T23:27:44.950Z,15.00
2023-05-08T23:30:16.759Z,15.00
2023-05-08T23:32:45.168Z,14.90
2023-05-08T23:35:14.045Z,14.90
2023-05-08T23:37:42.323Z,14.90
2023-05-08T23:40:13.023Z,14.80
2023-05-08T23:42:41.245Z,14.80
2023-05-08T23:45:19.877Z,14.80
2023-05-08T23:47:48.782Z,14.60
2023-05-08T23:50:18.978Z,14.70
2023-05-08T23:52:47.322Z,14.70
2023-05-08T23:55:16.946Z,14.70
2023-05-08T23:57:45.054Z,14.60
